Date,TemperatureHighF,TemperatureAvgF,TemperatureLowF,DewpointHighF,DewpointAvgF,DewpointLowF,HumidityHigh,HumidityAvg,HumidityLow,PressureMaxIn,PressureMinIn,WindSpeedMaxMPH,WindSpeedAvgMPH,GustSpeedMaxMPH,PrecipitationSumIn
2013-1-1,42.6,39.3,36.3,32.0,27.7,18.3,72,64,46,29.77,29.66,10,5,10,0.00
2013-1-2,41.5,35.2,28.9,28.1,23.3,15.4,76,62,48,29.94,29.73,6,2,6,0.00
2013-1-3,41.9,31.5,23.2,21.6,17.4,14.7,71,56,42,29.95,29.87,7,2,7,0.00
2013-1-4,44.6,33.6,27.1,24.1,18.6,15.6,62,54,42,29.96,29.87,10,4,10,0.00
2013-1-5,45.1,37.1,28.2,24.4,19.9,14.9,58,50,40,30.11,29.91,9,4,9,0.00
2013-1-6,46.2,39.9,33.1,29.1,26.4,23.7,69,59,50,29.92,29.79,12,4,12,0.00
2013-1-7,44.4,37.6,31.8,28.3,25.2,22.4,70,61,51,30.19,29.90,14,3,14,0.00
2013-1-8,55.2,41.2,31.6,32.6,26.4,22.6,71,57,35,30.15,30.06,25,4,25,0.00
2013-1-9,59.0,48.6,32.4,44.8,36.5,23.1,74,63,46,30.18,30.03,23,6,23,0.00
2013-1-10,55.9,46.6,36.7,33.4,29.4,25.6,64,51,40,30.32,30.18,10,1,10,0.00
2013-1-11,46.9,44.4,42.1,43.0,34.2,26.9,86,68,52,30.19,29.85,18,4,18,0.00
2013-1-12,70.3,54.7,43.0,55.5,47.5,39.4,88,78,58,29.93,29.85,10,2,10,0.00
2013-1-13,67.5,60.1,50.9,56.7,52.9,45.6,87,78,64,29.86,29.75,18,4,18,0.00
2013-1-14,62.1,53.3,38.8,54.9,45.5,34.7,85,75,67,30.06,29.76,23,8,23,0.18
2013-1-15,39.0,36.7,34.5,35.2,33.1,31.0,88,87,85,30.08,29.86,9,4,9,0.67
2013-1-16,48.7,39.5,33.8,44.1,35.9,30.3,88,87,82,29.88,29.59,20,3,20,0.24
2013-1-17,45.7,40.4,34.2,40.5,32.9,27.7,85,75,58,29.87,29.74,9,4,9,0.00
2013-1-18,42.4,34.7,30.6,28.5,18.8,11.7,79,53,36,30.18,29.86,23,6,23,0.00
2013-1-19,54.5,41.3,30.6,29.0,23.4,18.5,64,50,34,30.12,29.75,26,11,26,0.00
2013-1-20,56.3,44.8,34.0,31.2,21.0,6.6,55,40,26,29.82,29.64,33,12,33,0.00
2013-1-21,47.3,36.3,25.9,19.0,12.1,6.8,45,37,30,29.82,29.56,38,13,38,0.02
2013-1-22,25.7,19.1,13.3,7.3,-2.0,-6.1,47,39,30,29.97,29.69,28,11,28,0.00
2013-1-23,29.1,20.1,11.7,11.6,1.0,-3.7,64,43,31,30.01,29.79,18,2,18,0.00
2013-1-24,25.0,19.3,13.3,13.1,7.2,0.5,77,60,43,30.21,29.75,28,6,28,0.00
2013-1-25,22.6,18.1,12.9,15.6,8.2,0.5,75,65,51,30.21,29.75,20,3,20,0.00
2013-1-26,38.1,27.7,19.6,24.3,18.4,13.5,78,68,56,30.14,29.74,9,1,9,0.00
2013-1-27,39.0,30.6,21.0,22.8,19.1,13.1,72,62,51,30.27,30.13,9,3,9,0.00
2013-1-28,55.0,41.4,31.6,43.5,33.8,21.9,85,75,65,30.15,29.86,21,8,21,0.08
2013-1-29,73.2,58.7,46.9,54.9,48.3,41.9,85,70,50,29.90,29.75,21,6,21,0.00
2013-1-30,66.0,59.5,54.5,58.3,53.0,48.7,89,79,69,29.75,29.10,32,14,32,1.44
2013-1-31,54.7,37.1,28.6,51.5,23.6,14.1,89,58,46,29.65,29.06,37,22,37,0.06
2013-2-1,30.6,23.2,16.2,22.6,8.2,1.1,75,53,40,30.07,29.54,38,14,38,0.00
2013-2-2,31.6,22.1,14.2,21.4,10.8,1.3,78,62,42,30.06,29.72,25,6,25,0.00
2013-2-3,36.7,30.4,26.4,26.4,20.5,11.6,81,67,52,29.72,29.55,26,7,26,0.00
2013-2-4,35.8,29.5,21.4,27.1,15.2,8.5,72,55,49,29.80,29.63,20,7,20,0.00
2013-2-5,49.3,42.0,35.2,34.6,30.6,26.4,74,64,55,29.68,29.58,26,10,26,0.00
2013-2-6,49.8,39.8,30.0,31.1,26.6,21.1,73,60,44,30.05,29.68,10,3,10,0.00
2013-2-7,39.4,33.9,28.6,28.1,24.4,20.9,74,68,62,30.11,29.89,10,3,10,0.00
2013-2-8,45.1,35.6,31.3,37.5,27.8,21.0,84,74,59,29.89,29.54,32,6,32,0.06
2013-2-9,45.0,33.9,27.1,21.1,15.4,10.2,62,48,32,30.10,29.77,32,8,32,0.00
2013-2-10,43.7,34.2,22.8,24.9,16.5,11.0,63,49,38,30.15,29.93,23,6,23,0.00
2013-2-11,61.2,49.8,36.9,49.2,35.8,22.1,82,61,31,29.93,29.55,32,10,32,0.00
2013-2-12,60.6,48.5,38.8,25.8,22.2,17.9,52,37,22,29.75,29.62,28,8,28,0.00
2013-2-13,43.7,37.0,32.5,29.9,25.5,17.7,84,65,37,29.71,29.41,9,2,9,0.04
2013-2-14,47.8,38.1,27.7,29.4,26.3,22.0,85,64,43,29.77,29.56,9,2,9,0.04
2013-2-15,55.2,40.5,33.1,35.1,29.0,23.0,83,65,45,29.80,29.67,26,6,26,0.12
2013-2-16,35.8,32.0,24.6,30.2,23.2,13.9,84,70,55,29.75,29.61,20,6,20,0.00
2013-2-17,27.1,22.7,19.2,15.2,8.1,3.5,68,54,42,29.93,29.63,32,14,32,0.00
2013-2-18,45.5,31.2,16.3,21.3,12.9,4.3,61,47,34,30.07,29.86,20,4,20,0.00
2013-2-19,48.9,39.6,34.5,38.5,27.1,16.3,81,61,45,29.86,29.49,40,13,40,0.02
2013-2-20,39.9,31.5,23.5,17.1,13.6,10.1,58,48,37,29.88,29.64,28,10,28,0.00
2013-2-21,42.4,29.2,18.0,20.0,14.0,7.8,65,53,39,30.04,29.85,12,4,12,0.00
2013-2-22,34.5,31.0,28.0,26.2,21.7,15.4,79,68,57,30.07,29.88,10,4,10,0.06
2013-2-23,51.1,40.2,32.9,39.4,32.5,25.5,80,74,64,29.88,29.58,8,2,8,0.00
2013-2-24,52.5,40.7,30.6,39.0,28.2,17.5,88,64,36,29.87,29.58,21,7,21,0.00
2013-2-25,43.0,32.8,23.9,25.4,17.7,5.3,66,54,22,29.96,29.87,18,2,18,0.00
2013-2-26,37.4,33.4,29.7,33.9,25.4,17.3,87,73,57,29.93,29.40,13,3,13,0.75
2013-2-27,51.4,41.9,35.8,36.4,32.4,30.2,88,70,52,29.49,29.35,25,6,25,0.02
2013-2-28,41.9,37.9,34.9,31.6,25.2,23.1,68,60,51,29.54,29.42,24,8,24,0.00
2013-3-1,37.9,35.1,31.6,26.4,23.8,20.5,68,63,58,29.67,29.53,9,5,9,0.00
2013-3-2,34.9,31.0,28.8,23.7,19.6,16.2,74,62,54,29.66,29.58,12,5,12,0.00
2013-3-3,41.4,30.4,24.1,21.6,16.2,11.0,66,56,44,29.72,29.58,26,6,26,0.00
2013-3-4,46.8,32.6,20.3,19.7,13.2,9.3,63,46,29,29.80,29.71,18,4,18,0.00
2013-3-5,48.2,38.7,31.1,28.4,22.0,12.7,81,52,40,29.81,29.49,9,2,9,0.02
2013-3-6,36.1,32.3,30.4,30.5,27.6,26.0,86,83,72,29.82,29.41,28,11,28,0.00
2013-3-7,40.8,36.8,34.7,29.5,26.6,24.4,72,66,58,29.96,29.80,28,10,28,0.00
2013-3-8,41.9,35.6,31.5,27.4,24.8,21.2,73,65,56,30.08,29.93,29,8,29,0.00
2013-3-9,52.9,36.6,27.3,30.8,24.4,20.0,75,62,37,30.12,30.02,5,0,5,0.10
2013-3-10,60.1,51.1,31.6,32.5,27.9,21.2,65,42,35,30.05,29.94,8,4,8,0.06
2013-3-11,55.8,51.5,46.0,47.6,32.8,23.5,75,51,34,29.95,29.64,25,7,25,0.02
2013-3-12,58.6,50.8,37.0,48.8,41.6,25.8,88,72,47,29.77,29.52,26,9,26,0.51
2013-3-13,46.6,37.1,30.4,28.3,22.3,15.2,70,56,38,29.85,29.68,33,12,33,0.00
2013-3-14,46.0,35.0,26.1,21.0,16.3,12.9,59,47,34,29.92,29.82,32,14,32,0.00
2013-3-15,57.7,44.0,30.4,34.7,23.7,13.5,51,45,38,29.87,29.58,32,9,32,0.00
2013-3-16,61.0,50.4,39.6,51.2,39.9,30.4,80,68,47,29.66,29.41,30,6,30,0.12
2013-3-17,39.6,34.6,30.7,33.7,30.7,27.3,87,85,79,29.98,29.66,9,5,9,0.18
2013-3-18,33.3,31.5,30.6,29.8,27.9,26.7,87,86,84,29.99,29.64,7,2,7,0.08
2013-3-19,55.9,42.3,32.4,39.3,25.7,9.7,88,58,24,29.73,29.52,54,17,54,0.36
2013-3-20,49.6,40.7,31.6,22.7,14.6,9.7,57,35,27,29.77,29.54,33,13,33,0.00
2013-3-21,36.5,29.5,23.5,24.0,13.9,7.6,74,53,39,29.68,29.54,29,13,29,0.00
2013-3-22,47.5,35.8,23.9,20.2,15.2,7.9,56,43,32,29.76,29.63,23,6,23,0.00
2013-3-23,53.8,40.7,27.7,24.2,18.1,13.3,56,41,28,29.80,29.67,18,2,18,0.00
2013-3-24,39.0,33.4,30.4,26.1,22.3,17.2,83,64,43,29.74,29.37,8,2,8,0.00
2013-3-25,36.7,32.8,29.5,31.4,27.5,24.7,85,81,68,29.49,29.28,8,2,8,0.00
2013-3-26,43.5,37.3,32.0,31.8,26.2,24.3,76,65,52,29.81,29.49,20,5,20,0.32
2013-3-27,45.7,37.8,29.7,28.6,24.9,21.1,72,60,49,29.92,29.80,34,13,34,0.00
2013-3-28,46.6,39.2,32.9,28.7,24.7,21.3,63,56,48,30.00,29.89,26,8,26,0.00
2013-3-29,55.0,44.7,36.3,32.7,26.5,22.7,65,50,35,30.03,29.91,18,4,18,0.00
2013-3-30,58.5,46.5,32.2,33.5,27.5,22.4,70,49,34,29.99,29.84,21,2,21,0.00
2013-3-31,54.7,47.0,41.7,47.8,38.0,26.6,84,71,47,29.85,29.54,21,4,21,0.08
2013-4-1,57.9,48.1,39.4,43.2,34.6,20.3,78,60,44,29.77,29.57,33,11,33,0.00
2013-4-2,49.3,40.5,32.7,20.3,16.3,12.5,49,38,26,29.93,29.77,25,8,25,0.00
2013-4-3,52.3,40.3,29.7,20.2,15.5,12.5,51,37,25,30.10,29.92,26,8,26,0.00
2013-4-4,44.2,35.2,27.1,29.2,18.4,12.4,82,52,36,30.12,29.80,18,4,18,0.16
2013-4-5,63.1,47.8,34.0,43.4,32.6,27.6,86,60,33,29.83,29.64,23,3,23,0.10
2013-4-6,57.4,47.0,32.7,27.6,22.4,17.9,55,39,25,30.06,29.83,9,4,9,0.00
2013-4-7,67.8,55.2,43.3,43.1,36.1,22.0,62,49,37,29.97,29.78,32,13,32,0.00
2013-4-8,76.5,65.2,52.5,49.4,44.7,40.7,65,49,33,29.88,29.75,30,8,30,0.00
2013-4-9,81.3,68.9,58.6,54.7,50.0,46.6,65,52,39,29.92,29.78,25,6,25,0.00
2013-4-10,87.4,77.5,61.3,58.9,53.4,45.4,64,44,32,29.83,29.64,26,9,26,0.02
2013-4-11,83.3,72.5,60.4,59.7,53.5,49.5,68,52,34,29.71,29.53,25,7,25,0.00
2013-4-12,75.4,66.7,55.6,60.8,51.9,36.7,87,62,35,29.60,29.41,36,13,36,0.56
2013-4-13,69.1,57.6,47.1,38.6,33.5,25.5,58,42,26,29.77,29.60,33,8,33,0.00
2013-4-14,71.4,59.5,46.2,44.3,35.6,26.0,54,41,33,29.89,29.77,21,4,21,0.00
2013-4-15,59.9,55.3,50.9,50.1,47.0,40.4,85,74,54,30.03,29.87,7,2,7,0.20
2013-4-16,72.7,62.8,54.1,58.9,54.3,49.3,86,75,60,30.06,29.92,20,8,20,0.00
2013-4-17,79.7,67.5,59.5,61.1,57.4,55.0,85,71,43,30.01,29.91,12,2,12,0.08
2013-4-18,73.2,65.5,60.4,60.5,56.4,53.0,83,73,57,29.98,29.75,26,10,26,0.00
2013-4-19,71.8,64.3,51.1,61.4,56.1,38.1,87,75,60,29.76,29.42,36,20,36,0.41
2013-4-20,58.1,50.4,40.8,38.1,29.8,24.4,64,46,33,30.09,29.62,28,10,28,0.00
2013-4-21,54.1,45.6,35.2,32.1,27.7,23.3,64,50,39,30.30,30.09,12,5,12,0.04
2013-4-22,58.6,47.6,35.2,34.5,30.0,24.5,66,51,36,30.27,30.09,9,3,9,0.00
2013-4-23,64.9,52.5,41.4,46.2,39.3,31.8,74,61,47,30.12,29.87,9,4,9,0.00
2013-4-24,74.5,61.7,49.6,54.4,48.0,41.1,76,62,41,29.88,29.61,37,10,37,0.04
2013-4-25,63.0,53.4,42.1,41.1,31.3,24.6,64,45,28,30.09,29.83,26,6,26,0.00
2013-4-26,63.3,54.9,41.5,39.7,34.0,26.0,58,45,35,30.21,30.08,8,3,8,0.00
2013-4-27,68.5,58.7,45.0,44.1,39.5,33.9,67,50,37,30.16,30.02,20,3,20,0.00
2013-4-28,58.8,53.7,50.5,47.6,44.4,41.2,84,71,52,30.03,29.89,26,7,26,0.10
2013-4-29,64.6,55.9,49.8,53.6,49.4,44.9,85,79,66,29.90,29.78,9,2,9,0.04
2013-4-30,63.1,57.0,52.5,53.3,50.6,48.5,86,79,69,30.05,29.85,13,5,13,0.00
2013-5-1,70.0,59.8,51.4,52.3,44.7,37.5,85,61,34,30.16,30.04,12,5,12,0.02
2013-5-2,70.2,58.8,44.4,47.8,41.8,35.2,71,54,43,30.16,30.06,10,3,10,0.00
2013-5-3,64.2,55.6,45.1,47.8,43.2,37.7,81,64,50,30.13,30.02,13,4,13,0.00
2013-5-4,63.7,52.9,40.8,46.9,40.8,33.5,77,64,53,30.07,29.93,20,4,20,0.02
2013-5-5,64.6,54.1,42.6,42.8,38.9,34.4,73,57,42,29.99,29.87,10,4,10,0.00
2013-5-6,57.5,53.0,47.8,52.1,48.7,40.4,88,86,53,29.89,29.77,23,9,23,0.36
2013-5-7,59.5,55.7,51.6,55.7,52.3,48.2,89,88,86,29.77,29.69,25,8,25,1.36
2013-5-8,60.4,53.7,49.3,55.6,49.7,46.5,90,86,75,29.79,29.72,8,2,8,0.08
2013-5-9,74.5,60.4,47.3,59.4,50.0,44.4,91,72,41,29.84,29.74,23,4,23,0.02
2013-5-10,79.9,66.7,54.5,59.1,53.8,47.8,87,65,40,29.85,29.69,25,6,25,0.49
2013-5-11,74.5,65.7,59.4,58.4,55.9,49.9,87,72,53,29.71,29.55,26,9,26,0.00
2013-5-12,62.4,57.6,47.1,50.5,37.5,28.5,65,48,34,29.84,29.60,33,12,33,0.02
2013-5-13,57.9,48.8,41.2,34.4,29.8,26.6,64,49,32,29.95,29.82,29,7,29,0.00
2013-5-14,65.3,52.2,35.2,41.1,35.2,28.4,77,54,37,29.98,29.78,20,5,20,0.00
2013-5-15,89.8,71.7,55.0,61.2,49.0,40.0,65,47,27,29.79,29.58,29,9,29,0.00
2013-5-16,81.3,73.7,65.1,59.0,54.2,49.3,78,51,43,29.80,29.65,36,5,36,0.00
2013-5-17,77.9,68.4,58.3,61.9,56.6,52.5,84,68,47,29.93,29.78,10,3,10,0.04
2013-5-18,68.7,64.3,62.1,61.6,58.6,56.9,86,82,75,29.99,29.91,8,3,8,0.00
2013-5-19,67.1,62.9,58.8,61.0,58.1,55.0,88,84,79,29.97,29.87,9,3,9,0.02
2013-5-20,79.2,69.1,62.4,65.6,61.8,58.8,90,78,60,29.91,29.80,12,4,12,0.02
2013-5-21,83.8,73.2,61.3,67.6,63.2,57.6,88,72,51,29.82,29.71,9,3,9,0.00
2013-5-22,85.6,73.7,64.2,65.9,62.2,58.1,86,69,40,29.78,29.66,29,6,29,0.26
2013-5-23,77.5,68.3,61.0,64.1,60.4,55.1,88,77,57,29.73,29.57,23,6,23,1.08
2013-5-24,61.0,55.8,44.8,57.4,43.9,31.7,89,66,47,29.97,29.61,36,15,36,0.00
2013-5-25,64.0,52.1,38.3,39.2,33.5,29.0,70,51,32,30.03,29.93,30,8,30,0.00
2013-5-26,70.7,59.0,44.8,40.9,35.7,31.2,69,44,24,30.04,29.94,9,2,9,0.00
2013-5-27,64.2,56.9,45.0,48.2,41.1,33.3,69,56,44,30.08,29.97,5,0,5,0.00
2013-5-28,81.3,68.8,55.4,63.6,56.2,47.2,79,65,48,29.99,29.88,28,6,28,0.00
2013-5-29,84.4,76.1,65.8,63.9,60.3,57.5,75,59,44,29.97,29.90,21,6,21,0.00
2013-5-30,87.6,77.5,67.3,67.3,61.0,57.3,75,58,38,30.03,29.95,18,3,18,0.00
2013-5-31,84.6,75.9,62.8,63.9,60.4,55.8,79,60,42,29.99,29.86,21,6,21,0.00
2013-6-1,85.3,78.0,68.2,65.8,62.8,56.0,72,60,46,29.88,29.77,23,7,23,0.00
2013-6-2,79.9,75.2,69.6,66.9,63.3,60.7,79,67,58,29.78,29.67,32,9,32,0.00
2013-6-3,80.6,71.9,65.3,66.6,60.5,54.5,84,68,50,29.81,29.67,21,4,21,0.00
2013-6-4,73.6,65.8,57.0,54.7,48.9,44.5,79,56,37,29.94,29.80,20,4,20,0.00
2013-6-5,75.9,68.0,59.5,59.5,53.6,47.1,70,61,47,29.97,29.84,21,5,21,0.00
2013-6-6,67.8,62.9,59.9,60.1,56.6,52.4,89,80,66,29.85,29.66,8,3,8,0.20
2013-6-7,67.1,64.6,62.6,63.7,61.3,59.3,90,89,87,29.66,29.48,20,4,20,0.24
2013-6-8,77.4,68.3,59.7,64.2,59.3,56.2,89,74,51,29.91,29.61,8,2,8,0.02
2013-6-9,76.6,69.5,65.1,66.9,62.3,58.8,86,78,71,30.00,29.88,10,2,10,0.02
2013-6-10,76.8,68.4,64.9,70.0,64.6,61.9,90,88,76,29.92,29.64,18,5,18,1.30
2013-6-11,79.5,71.4,64.8,63.6,61.2,57.2,90,72,54,29.74,29.66,20,5,20,0.30
2013-6-12,86.7,76.8,64.4,70.2,63.6,57.2,82,65,49,29.75,29.64,23,4,23,0.00
2013-6-13,77.4,70.7,64.6,67.7,62.0,53.7,81,74,67,29.67,29.39,32,9,32,0.24
2013-6-14,75.4,67.4,59.5,56.4,52.7,49.4,70,60,47,29.85,29.54,24,8,24,0.00
2013-6-15,78.8,69.1,55.2,58.8,54.5,49.5,82,61,44,29.93,29.82,8,2,8,0.00
2013-6-16,80.4,71.0,61.3,66.6,59.8,53.3,83,68,57,29.87,29.76,20,5,20,0.04
2013-6-17,82.6,72.8,66.0,67.9,63.7,59.8,85,74,59,29.82,29.73,24,4,24,0.00
2013-6-18,70.2,67.1,64.2,65.6,61.9,59.3,87,83,75,29.78,29.65,21,3,21,0.47
2013-6-19,75.4,67.9,60.4,65.8,60.6,56.9,89,78,65,29.96,29.73,10,3,10,0.02
2013-6-20,75.9,69.9,64.0,64.2,61.4,58.9,86,75,64,30.06,29.96,23,5,23,0.00
2013-6-21,80.1,72.1,61.5,65.4,59.4,53.5,76,65,53,30.08,30.02,9,4,9,0.00
2013-6-22,83.1,73.0,61.2,65.3,60.3,54.9,82,66,44,30.06,29.95,9,3,9,0.00
2013-6-23,83.3,74.1,66.4,68.7,63.8,60.7,85,72,49,30.01,29.91,8,2,8,0.20
2013-6-24,84.4,73.0,64.8,70.8,64.6,60.8,87,76,57,29.99,29.88,33,3,33,0.14
2013-6-25,85.3,76.1,66.2,71.0,66.2,61.4,87,72,55,29.91,29.77,9,3,9,0.00
2013-6-26,83.3,75.2,70.3,70.0,67.2,63.9,85,76,62,29.79,29.69,21,4,21,0.10
2013-6-27,81.3,74.1,68.7,69.1,65.9,63.4,86,76,62,29.71,29.50,20,6,20,0.04
2013-6-28,88.0,76.9,69.1,68.7,62.9,57.2,82,64,38,29.53,29.34,28,9,28,0.00
2013-6-29,82.2,73.1,63.7,65.2,59.7,56.0,86,64,46,29.55,29.40,13,4,13,0.26
2013-6-30,82.2,73.3,66.2,70.5,66.1,62.9,89,79,64,29.69,29.54,20,4,20,0.14
2013-7-1,80.2,73.3,68.2,68.2,65.5,63.5,86,77,63,29.80,29.67,20,4,20,0.02
2013-7-2,76.1,71.8,69.6,68.4,66.5,64.9,88,83,76,29.98,29.79,18,6,18,0.16
2013-7-3,78.6,72.2,69.6,70.4,67.2,65.4,89,85,74,30.05,29.95,9,4,9,0.20
2013-7-4,81.7,75.3,69.6,72.1,68.2,65.9,90,79,64,30.07,29.99,23,6,23,0.10
2013-7-5,83.8,77.0,70.0,69.7,67.8,65.6,86,74,59,30.06,29.97,21,6,21,0.02
2013-7-6,85.1,78.1,70.3,70.4,67.5,65.4,87,71,55,30.03,29.91,18,5,18,0.00
2013-7-7,84.7,74.8,68.7,71.0,66.7,62.9,86,76,60,29.97,29.84,28,7,28,0.18
2013-7-8,81.3,73.6,66.0,68.0,64.6,62.0,88,74,57,29.97,29.90,18,3,18,0.00
2013-7-9,80.4,75.2,69.3,70.3,66.7,62.8,83,75,67,29.96,29.86,8,2,8,0.04
2013-7-10,81.5,75.5,72.1,71.7,68.4,66.2,84,79,68,29.88,29.74,21,4,21,0.00
2013-7-11,82.9,75.1,66.0,72.6,66.4,62.0,88,75,59,29.78,29.71,9,4,9,2.61
2013-7-12,71.8,66.3,63.3,63.3,61.6,60.0,89,85,74,29.89,29.77,20,7,20,1.30
2013-7-13,78.6,71.8,64.0,69.7,65.3,61.0,90,80,69,30.06,29.89,6,2,6,0.16
2013-7-14,82.8,75.5,67.6,72.0,66.7,64.3,90,75,59,30.16,30.06,18,4,18,0.22
2013-7-15,89.2,79.4,68.7,71.4,67.9,64.7,88,69,51,30.17,30.06,7,1,7,0.00
2013-7-16,89.1,81.1,70.7,73.7,69.9,65.8,85,70,57,30.12,30.03,18,3,18,0.00
2013-7-17,89.8,81.7,72.1,74.7,70.4,67.3,86,70,53,30.09,29.96,10,2,10,0.00
2013-7-18,91.0,82.4,73.0,75.8,71.6,68.3,87,71,54,30.00,29.88,5,1,5,0.00
2013-7-19,89.4,79.1,73.9,74.6,69.9,64.9,86,74,58,29.90,29.77,10,2,10,0.00
2013-7-20,88.7,78.4,71.8,72.3,68.1,63.8,84,71,52,29.79,29.69,18,5,18,0.00
2013-7-21,84.9,74.3,68.2,70.8,66.3,62.2,85,76,59,29.82,29.75,30,2,30,0.43
2013-7-22,83.5,75.1,69.1,72.1,68.3,65.4,88,80,66,29.80,29.62,21,4,21,0.02
2013-7-23,84.7,77.0,69.1,69.7,65.9,62.0,88,70,50,29.63,29.54,9,3,9,0.00
2013-7-24,80.6,73.6,68.4,67.2,62.6,55.2,78,69,58,29.77,29.55,24,6,24,0.00
2013-7-25,75.7,68.6,59.7,59.4,55.6,51.4,75,64,55,29.88,29.75,10,5,10,0.00
2013-7-26,78.8,69.5,57.7,62.9,57.7,52.3,83,67,51,29.93,29.84,10,2,10,0.00
2013-7-27,72.7,69.6,66.4,66.5,63.5,60.7,86,81,75,29.87,29.75,12,3,12,0.16
2013-7-28,81.0,72.9,67.3,66.7,62.7,59.4,85,71,52,29.84,29.71,9,4,9,0.00
2013-7-29,78.4,70.5,58.6,59.5,54.9,51.8,80,59,44,30.01,29.84,8,2,8,0.00
2013-7-30,78.4,69.9,58.1,59.8,56.2,51.6,79,63,47,30.05,29.96,8,2,8,0.00
2013-7-31,78.4,67.9,63.3,66.3,61.2,58.1,88,79,64,29.98,29.83,9,2,9,0.14
2013-8-1,81.3,70.8,64.0,68.5,64.0,60.7,90,80,63,29.83,29.68,24,2,24,0.14
2013-8-2,81.7,73.1,61.9,64.0,60.0,56.4,86,65,43,29.83,29.73,12,3,12,0.00
2013-8-3,78.4,70.2,65.7,64.5,59.9,56.7,79,70,62,29.82,29.76,7,1,7,0.02
2013-8-4,80.4,70.8,61.3,63.6,56.1,50.9,85,62,40,29.88,29.78,25,6,25,0.00
2013-8-5,77.2,68.3,55.6,59.0,55.0,49.5,81,64,48,29.94,29.83,9,3,9,0.00
2013-8-6,78.6,70.6,63.5,66.3,62.1,58.1,87,75,62,29.86,29.80,10,2,10,0.06
2013-8-7,80.2,73.3,67.1,68.7,65.9,62.6,86,78,67,29.88,29.82,18,5,18,0.00
2013-8-8,80.4,74.4,70.5,70.6,67.7,65.4,86,80,70,29.86,29.80,24,5,24,0.02
2013-8-9,87.4,78.7,71.6,71.3,68.4,65.0,87,72,54,29.82,29.75,30,10,30,0.00
2013-8-10,79.5,74.7,70.5,70.2,67.2,65.1,88,78,68,29.92,29.82,9,2,9,0.18
2013-8-11,81.7,74.4,67.8,70.5,67.8,63.8,89,80,68,29.94,29.84,8,2,8,0.00
2013-8-12,85.6,75.7,67.1,70.3,67.0,63.9,91,76,59,29.88,29.76,8,1,8,0.00
2013-8-13,84.0,74.1,69.4,68.3,64.6,60.0,88,73,54,29.76,29.62,9,3,9,0.00
2013-8-14,73.2,65.9,57.4,60.3,50.3,46.3,74,58,45,29.95,29.69,23,10,23,0.00
2013-8-15,73.6,65.0,51.6,55.2,50.8,46.0,82,61,48,30.00,29.90,8,2,8,0.00
2013-8-16,75.9,64.9,53.4,57.4,52.9,48.7,84,66,49,30.01,29.93,7,2,7,0.00
2013-8-17,77.0,66.5,53.4,60.7,55.2,49.0,85,68,51,30.06,30.00,9,2,9,0.00
2013-8-18,66.2,62.9,58.8,59.8,58.0,55.0,88,84,79,30.06,29.99,7,3,7,0.38
2013-8-19,77.0,68.5,61.7,66.9,63.0,58.0,90,83,70,30.01,29.88,7,2,7,0.02
2013-8-20,82.2,74.4,67.1,69.7,65.4,62.8,89,75,55,30.01,29.93,7,2,7,0.00
2013-8-21,84.4,72.2,66.0,69.6,65.2,61.0,88,80,57,30.03,29.92,23,2,23,0.55
2013-8-22,83.1,71.7,63.5,68.4,64.1,57.2,90,78,53,29.94,29.82,7,2,7,0.10
2013-8-23,70.7,67.0,60.1,66.8,62.7,56.2,89,86,80,29.96,29.80,23,3,23,0.79
2013-8-24,80.6,66.9,55.6,65.7,57.4,52.4,90,73,50,30.14,29.96,10,2,10,0.06
2013-8-25,78.1,67.3,56.3,61.4,56.7,52.2,87,70,47,30.21,30.08,8,2,8,0.00
2013-8-26,82.9,71.0,60.1,62.3,59.1,54.9,83,67,48,30.12,29.88,9,2,9,0.00
2013-8-27,83.7,74.0,66.4,69.3,64.0,59.3,81,72,57,29.89,29.77,12,2,12,0.02
2013-8-28,75.9,72.1,69.1,72.3,67.0,63.7,89,84,75,29.81,29.66,8,3,8,0.47
2013-8-29,80.2,73.5,68.2,70.0,67.3,63.5,90,82,66,29.87,29.69,12,4,12,0.04
2013-8-30,82.6,73.1,63.7,68.8,64.8,60.4,91,76,56,29.88,29.73,12,4,12,0.00
2013-8-31,85.8,74.8,68.9,71.0,66.4,62.9,86,76,58,29.77,29.67,37,4,37,0.00
2013-9-1,83.1,73.2,65.7,70.2,66.0,62.3,89,79,60,29.72,29.63,13,1,13,0.00
2013-9-2,84.6,75.8,66.9,70.2,67.1,63.7,90,76,58,29.69,29.59,10,3,10,0.00
2013-9-3,84.4,74.2,66.0,67.5,61.3,54.4,86,66,45,29.82,29.60,9,4,9,0.00
2013-9-4,79.3,68.3,56.5,60.2,56.0,51.1,83,66,51,29.93,29.82,6,1,6,0.00
2013-9-5,83.7,65.7,54.7,61.3,52.9,36.7,82,66,40,29.96,29.86,10,3,10,0.00
2013-9-6,72.5,64.9,55.6,54.4,51.7,47.4,81,63,47,30.06,29.93,6,2,6,0.00
2013-9-7,79.5,66.9,54.3,59.2,54.5,49.9,85,66,43,29.96,29.78,7,2,7,0.00
2013-9-8,85.8,73.2,62.4,66.2,60.6,53.6,79,66,48,29.86,29.72,8,3,8,0.00
2013-9-9,77.7,69.9,63.3,64.9,60.6,54.5,80,73,63,30.00,29.86,9,4,9,0.00
2013-9-10,87.4,76.6,66.7,70.4,66.5,61.1,85,72,54,30.02,29.94,9,3,9,0.00
2013-9-11,88.3,78.5,70.3,72.2,68.0,65.0,86,71,55,30.01,29.87,20,2,20,0.00
2013-9-12,88.3,77.0,69.4,70.4,65.4,59.2,85,68,50,29.87,29.62,33,4,33,0.00
2013-9-13,74.3,66.7,58.1,60.3,53.3,46.0,81,63,44,29.78,29.57,28,9,28,0.02
2013-9-14,63.7,56.6,49.1,46.6,44.0,40.6,73,63,53,29.96,29.77,20,5,20,0.00
2013-9-15,73.6,61.0,47.1,56.3,50.1,42.5,85,69,51,30.02,29.88,21,6,21,0.00
2013-9-16,64.6,60.8,54.5,57.2,54.0,49.1,84,78,69,30.05,29.87,21,4,21,0.00
2013-9-17,64.6,57.3,52.3,51.8,48.7,44.0,85,74,58,30.18,30.05,10,2,10,0.00
2013-9-18,68.5,56.9,45.1,52.2,46.9,40.6,85,70,55,30.11,29.97,10,2,10,0.00
2013-9-19,75.0,64.4,56.8,59.4,54.1,48.4,80,70,58,29.98,29.88,10,2,10,0.00
2013-9-20,76.8,66.4,58.6,63.9,59.0,53.7,86,78,62,29.90,29.76,10,4,10,0.00
2013-9-21,68.5,64.5,58.8,62.2,59.8,55.6,89,85,78,29.77,29.50,24,6,24,0.59
2013-9-22,68.7,61.2,53.8,59.6,52.0,44.6,90,73,53,29.78,29.58,9,4,9,0.02
2013-9-23,63.0,55.7,48.0,47.8,44.8,41.2,81,67,57,29.91,29.77,12,3,12,0.00
2013-9-24,70.0,58.9,49.6,53.7,48.9,42.9,82,70,55,29.91,29.76,6,1,6,0.00
2013-9-25,72.0,61.6,50.5,56.2,51.5,46.5,87,71,49,29.80,29.70,7,1,7,0.00
2013-9-26,72.7,63.1,53.8,54.4,49.7,46.7,81,63,42,29.88,29.73,12,3,12,0.00
2013-9-27,70.3,60.4,49.6,54.8,50.2,44.4,82,70,54,30.02,29.88,7,1,7,0.00
2013-9-28,65.5,58.3,15.8,55.6,50.4,11.6,88,75,59,30.10,30.01,9,2,9,0.00
2013-9-29,70.3,60.1,51.6,52.6,49.1,46.9,85,68,50,30.01,29.85,9,2,9,0.00
2013-9-30,73.9,62.1,49.8,55.8,50.9,45.2,85,68,48,29.89,29.79,6,1,6,0.00
2013-10-1,77.5,67.5,59.4,60.2,54.8,53.0,82,65,44,29.91,29.83,7,1,7,0.00
2013-10-2,80.1,66.7,54.9,60.9,55.1,49.6,83,68,48,29.94,29.85,7,1,7,0.00
2013-10-3,79.3,68.2,58.5,61.6,57.6,52.6,82,70,53,29.96,29.87,9,2,9,0.00
2013-10-4,81.3,69.8,58.8,63.4,59.8,54.3,86,72,53,29.94,29.87,9,1,9,0.00
2013-10-5,83.3,72.4,61.5,65.1,61.3,57.3,87,70,47,29.95,29.84,10,2,10,0.00
2013-10-6,82.2,72.2,62.2,64.1,60.4,57.5,85,68,47,29.86,29.72,28,7,28,0.00
2013-10-7,70.5,63.7,52.3,63.9,56.1,42.4,90,77,56,29.88,29.58,21,6,21,1.12
2013-10-8,63.3,54.9,45.7,47.4,43.1,39.2,78,65,50,30.07,29.88,9,3,9,0.00
2013-10-9,56.8,52.2,46.9,46.8,43.5,36.5,85,72,67,30.11,30.01,12,4,12,0.12
2013-10-10,54.7,51.8,49.1,51.5,48.4,45.1,90,88,85,30.01,29.82,21,8,21,0.46
2013-10-11,58.6,55.6,52.7,55.4,52.5,49.5,90,89,87,29.83,29.77,10,7,10,0.12
2013-10-12,61.7,59.0,55.6,58.2,56.1,52.7,91,90,88,29.97,29.80,12,6,12,0.08
2013-10-13,59.0,56.8,55.2,55.6,49.9,0.0,90,84,10,30.10,29.96,10,6,10,0.10
2013-10-14,62.2,57.6,55.0,57.6,53.9,51.2,91,87,82,30.11,30.02,7,2,7,0.02
2013-10-15,65.7,57.8,52.3,55.9,52.2,49.1,90,82,66,30.03,29.89,4,0,4,0.00
2013-10-16,67.6,59.7,50.9,56.7,52.7,46.9,87,78,64,29.89,29.73,8,3,8,0.00
2013-10-17,68.2,62.6,57.2,60.2,56.2,47.9,85,80,71,29.73,29.56,23,4,23,0.04
2013-10-18,62.4,54.6,47.5,47.7,41.5,38.4,75,62,46,29.83,29.69,13,3,13,0.00
2013-10-19,61.7,52.6,44.2,52.2,44.8,39.0,84,75,58,29.78,29.58,18,2,18,0.00
2013-10-20,58.8,49.5,40.8,38.4,34.4,30.3,69,56,44,29.88,29.71,25,3,25,0.00
2013-10-21,65.5,51.9,39.4,44.3,39.3,33.4,79,64,44,29.92,29.75,21,4,21,0.00
2013-10-22,66.9,55.4,48.0,47.5,42.9,36.4,77,64,47,29.75,29.62,24,5,24,0.00
2013-10-23,52.3,46.0,40.6,38.5,34.6,30.9,74,65,55,29.73,29.47,28,6,28,0.00
2013-10-24,47.8,42.2,36.5,31.2,27.5,23.4,67,56,44,29.93,29.72,23,7,23,0.00
2013-10-25,49.8,38.8,30.0,29.3,25.3,22.4,75,59,42,30.09,29.91,12,2,12,0.00
2013-10-26,53.2,41.6,27.7,32.9,26.0,20.8,76,56,34,30.08,29.74,24,8,24,0.00
2013-10-27,58.8,49.5,43.0,37.7,33.2,29.5,67,54,42,29.91,29.76,18,2,18,0.00
2013-10-28,60.4,49.5,37.8,43.1,37.1,30.5,75,63,48,30.05,29.90,7,1,7,0.00
2013-10-29,61.9,50.9,39.9,45.7,40.3,33.9,81,68,54,30.15,30.04,5,1,5,0.02
2013-10-30,65.8,57.2,51.4,55.0,48.9,42.3,80,74,67,30.08,29.92,23,2,23,0.00
2013-10-31,69.1,62.3,55.9,58.2,53.6,49.5,86,74,59,29.96,29.54,45,8,45,0.00
2013-11-1,71.8,65.2,55.2,58.3,51.4,42.4,81,62,42,29.55,29.40,34,15,34,0.06
2013-11-2,63.7,54.6,46.0,45.1,39.1,33.7,75,57,37,29.72,29.49,26,7,26,0.04
2013-11-3,54.1,46.5,38.5,36.0,29.6,22.2,71,53,33,30.17,29.72,24,6,24,0.00
2013-11-4,45.7,37.6,30.0,28.1,24.0,20.0,67,58,49,30.33,30.16,6,2,6,0.00
2013-11-5,52.3,43.3,31.6,41.1,32.4,23.6,79,66,48,30.35,30.20,9,2,9,0.00
2013-11-6,67.6,56.2,47.5,49.6,45.8,40.8,82,69,52,30.20,29.85,28,6,28,0.00
2013-11-7,58.8,52.1,40.1,51.1,41.1,22.6,85,67,49,29.88,29.70,28,8,28,0.02
2013-11-8,49.8,41.7,34.0,27.9,24.0,22.0,62,50,38,30.07,29.88,32,7,32,0.00
2013-11-9,55.4,42.6,29.3,29.4,25.7,21.2,72,53,36,30.08,29.84,26,7,26,0.00
2013-11-10,61.7,48.4,37.8,35.6,27.9,23.2,60,46,29,30.03,29.78,30,14,30,0.02
2013-11-11,61.3,46.5,33.6,31.2,25.1,18.9,66,46,21,30.07,29.79,21,5,21,0.00
2013-11-12,50.4,37.5,28.0,33.6,20.7,13.1,62,51,39,30.16,29.75,32,14,32,0.00
2013-11-13,69.6,33.1,27.1,54.7,15.2,10.0,61,48,33,30.23,30.13,21,4,21,0.00
2013-11-14,59.2,44.6,29.3,22.7,17.4,10.7,49,34,24,30.13,29.98,18,4,18,0.00
2013-11-15,63.5,49.3,36.7,37.5,22.4,16.7,74,36,19,30.04,29.93,20,3,20,0.00
2013-11-16,56.8,49.0,41.7,49.5,43.6,37.2,85,81,74,30.06,29.97,8,3,8,0.02
2013-11-17,61.5,56.8,52.2,55.8,51.3,48.0,88,82,74,29.98,29.54,10,6,10,0.04
2013-11-18,65.5,55.7,43.7,56.1,35.1,24.4,86,48,26,29.76,29.52,37,16,37,0.18
2013-11-19,48.9,39.8,32.7,27.4,24.1,21.9,64,53,42,30.11,29.76,26,8,26,0.00
2013-11-20,48.9,36.8,29.5,27.4,22.6,20.2,71,57,41,30.25,30.11,8,2,8,0.00
2013-11-21,48.0,42.1,34.3,38.7,31.4,20.7,74,66,57,30.26,30.13,7,2,7,0.00
2013-11-22,65.1,55.8,46.6,52.2,46.9,38.7,77,72,62,30.12,29.82,23,6,23,0.00
2013-11-23,56.3,46.9,27.7,47.0,30.5,11.4,71,54,31,29.98,29.82,32,14,32,0.02
2013-11-24,32.2,23.9,17.8,11.4,5.2,2.5,54,45,34,30.24,29.98,29,16,29,0.02
2013-11-25,39.0,28.9,16.5,13.1,9.4,3.9,61,45,31,30.23,30.05,18,5,18,0.00
2013-11-26,39.9,34.7,32.2,35.5,29.0,19.6,87,80,56,29.98,29.43,12,4,12,1.15
2013-11-27,37.0,32.8,24.4,33.5,26.7,12.9,87,78,61,29.84,29.36,33,11,33,0.04
2013-11-28,40.6,29.9,21.0,22.0,16.0,10.9,66,56,44,30.15,29.84,25,3,25,0.02
2013-11-29,44.2,31.5,22.8,26.3,19.7,15.5,74,62,46,30.40,30.15,6,1,6,0.00
2013-11-30,39.0,29.6,21.6,25.0,19.2,14.7,76,65,54,30.40,30.07,9,2,9,0.00
2013-12-1,52.0,39.5,27.1,30.8,24.9,18.3,70,57,43,30.07,29.77,10,2,10,0.00
2013-12-2,55.2,46.0,41.4,36.9,32.3,29.1,69,59,48,29.77,29.61,6,1,6,0.00
2013-12-3,58.1,45.4,37.8,41.5,35.1,30.2,76,68,54,29.76,29.63,8,1,8,0.00
2013-12-4,62.4,51.4,42.3,48.9,42.6,34.6,80,72,60,29.82,29.74,8,2,8,0.00
2013-12-5,68.4,59.5,53.2,56.1,52.3,47.2,83,77,65,29.83,29.73,20,4,20,0.00
2013-12-6,63.5,49.3,37.4,58.9,45.4,34.2,88,86,82,29.91,29.69,28,8,28,0.85
2013-12-7,41.9,35.5,28.6,34.2,29.5,21.7,88,79,68,30.24,29.88,14,7,14,0.02
2013-12-8,31.6,27.6,25.5,27.9,22.5,19.4,86,81,74,30.26,30.00,10,4,10,0.00
2013-12-9,52.3,38.1,31.6,45.7,33.9,27.9,88,85,77,30.01,29.76,12,4,12,0.08
2013-12-10,41.5,33.6,27.7,35.5,26.3,13.6,87,75,55,29.96,29.72,30,4,30,0.12
2013-12-11,41.5,32.5,23.2,22.8,17.4,11.8,62,54,45,30.10,29.95,20,5,20,0.06
2013-12-12,37.6,28.7,21.7,18.2,11.0,5.8,61,48,33,30.12,29.98,18,5,18,0.02
2013-12-13,43.2,32.7,23.0,19.1,14.1,8.2,56,46,36,30.04,29.94,21,6,21,0.06
2013-12-14,35.2,33.0,31.1,29.3,26.2,18.1,86,77,51,30.03,29.52,6,1,6,0.12
2013-12-15,44.6,36.3,32.2,34.9,27.4,20.7,88,71,53,29.71,29.42,24,7,24,0.10
2013-12-16,39.6,35.8,31.3,27.1,25.0,23.6,75,65,57,29.87,29.70,12,5,12,0.00
2013-12-17,51.4,38.2,28.0,36.1,28.9,22.4,80,70,54,29.84,29.66,36,9,36,0.00
2013-12-18,43.5,35.0,29.8,22.8,19.9,17.6,65,54,41,29.95,29.75,23,7,23,0.00
2013-12-19,64.6,48.0,33.1,33.5,24.5,17.5,54,41,29,29.93,29.85,25,9,25,0.00
2013-12-20,62.8,52.0,44.4,37.5,29.6,25.4,53,43,30,29.89,29.77,26,5,26,0.00
2013-12-21,68.7,59.7,51.8,56.4,46.0,35.8,74,61,52,29.82,29.67,33,12,33,0.00
2013-12-22,67.8,61.8,57.6,59.1,55.1,52.3,86,79,73,29.82,29.63,38,13,38,0.08
2013-12-23,60.1,50.2,33.3,55.0,43.8,24.2,89,79,64,29.99,29.72,25,6,25,0.55
2013-12-24,38.3,29.1,19.6,25.4,17.2,6.4,77,62,45,30.18,29.95,28,7,28,0.00
2013-12-25,32.9,23.8,14.7,14.8,10.5,5.9,71,57,45,30.24,30.04,9,3,9,0.00
2013-12-26,47.5,34.4,25.9,25.5,16.0,10.6,54,47,36,30.10,29.95,26,7,26,0.00
2013-12-27,51.4,38.0,28.0,23.9,18.2,13.5,55,45,32,30.15,30.05,10,3,10,0.00
2013-12-28,55.6,42.5,31.6,27.7,22.1,17.2,57,45,32,30.10,29.88,18,4,18,0.00
2013-12-29,48.7,42.7,38.8,43.8,35.3,23.7,86,76,43,29.89,29.39,26,5,26,0.28
2013-12-30,42.6,38.6,29.8,34.6,28.8,22.4,75,68,56,29.89,29.62,12,4,12,0.00
2013-12-31,42.6,34.9,30.0,24.8,20.2,14.0,75,56,39,30.04,29.85,38,10,38,0.00
2014-1-1,52.2,37.7,28.6,29.6,20.9,15.8,59,51,39,30.11,29.84,24,4,24,0.00
2014-1-2,37.0,32.1,27.7,25.7,23.3,7.0,84,70,40,29.84,29.39,6,1,6,0.00